createdAt,value
2023-03-29T00:01:35.950Z,-2.23
2023-03-29T00:04:39.199Z,-2.52
2023-03-29T00:07:41.468Z,-2.39
2023-03-29T00:10:43.631Z,-2.43
2023-03-29T00:13:45.751Z,-2.43
2023-03-29T00:16:47.917Z,-2.44
2023-03-29T00:19:50.063Z,-2.44
2023-03-29T00:22:52.159Z,-2.48
2023-03-29T00:25:54.540Z,-2.59
2023-03-29T00:28:56.553Z,-2.56
2023-03-29T00:31:59.153Z,-2.57
2023-03-29T00:35:01.640Z,-2.63
2023-03-29T00:38:06.414Z,-2.67
2023-03-29T00:41:09.415Z,-2.69
2023-03-29T00:44:49.072Z,-2.74
2023-03-29T00:47:58.708Z,-2.74
2023-03-29T00:51:07.562Z,-2.76
2023-03-29T00:54:15.489Z,-2.84
2023-03-29T00:57:20.838Z,-3.10
2023-03-29T01:00:28.822Z,-2.95
2023-03-29T01:03:41.644Z,-2.94
2023-03-29T01:06:49.428Z,-2.93
2023-03-29T01:09:58.508Z,-2.94
2023-03-29T01:13:06.905Z,-3.35
2023-03-29T01:16:12.012Z,-2.92
2023-03-29T01:19:19.206Z,-2.86
2023-03-29T01:22:39.056Z,-2.83
2023-03-29T01:26:19.795Z,-2.87
2023-03-29T01:29:26.424Z,-2.90
2023-03-29T01:32:35.526Z,-2.87
2023-03-29T01:35:45.649Z,-2.88
2023-03-29T01:39:05.586Z,-2.96
2023-03-29T01:42:46.916Z,-3.07
2023-03-29T01:46:07.760Z,-3.09
2023-03-29T01:49:27.777Z,-3.36
2023-03-29T01:52:36.239Z,-3.19
2023-03-29T01:55:47.538Z,-3.14
2023-03-29T01:58:54.584Z,-3.22
2023-03-29T02:02:01.404Z,-3.29
2023-03-29T02:05:04.137Z,-3.44
2023-03-29T02:08:10.010Z,-3.44
2023-03-29T02:11:12.118Z,-3.50
2023-03-29T02:14:14.218Z,-3.48
2023-03-29T02:17:20.621Z,-3.70
2023-03-29T02:20:30.342Z,-3.47
2023-03-29T02:23:41.653Z,-3.47
2023-03-29T02:26:43.693Z,-3.80
2023-03-29T02:29:47.957Z,-3.65
2023-03-29T02:33:10.903Z,-3.71
2023-03-29T02:36:19.097Z,-3.68
2023-03-29T02:39:23.125Z,-3.66
2023-03-29T02:42:28.291Z,-3.65
2023-03-29T02:45:31.698Z,-3.65
2023-03-29T02:48:37.344Z,-3.68
2023-03-29T02:51:39.696Z,-3.91
2023-03-29T02:54:45.571Z,-3.56
2023-03-29T02:57:47.615Z,-3.87
2023-03-29T03:00:50.595Z,-3.81
2023-03-29T03:03:52.914Z,-3.53
2023-03-29T03:06:55.457Z,-3.49
2023-03-29T03:09:57.919Z,-3.68
2023-03-29T03:13:00.085Z,-3.49
2023-03-29T03:16:04.418Z,-3.52
2023-03-29T03:19:07.529Z,-3.51
2023-03-29T03:22:10.145Z,-3.52
2023-03-29T03:25:12.411Z,-3.58
2023-03-29T03:28:15.272Z,-3.48
2023-03-29T03:31:18.124Z,-3.47
2023-03-29T03:34:46.476Z,-3.40
2023-03-29T03:37:48.655Z,-3.40
2023-03-29T03:40:56.572Z,-3.41
2023-03-29T03:43:59.390Z,-3.42
2023-03-29T03:47:01.713Z,-3.44
2023-03-29T03:50:05.443Z,-3.48
2023-03-29T03:53:07.790Z,-3.49
2023-03-29T03:56:30.386Z,-3.59
2023-03-29T03:59:41.637Z,-3.50
2023-03-29T04:02:48.424Z,-3.46
2023-03-29T04:05:50.911Z,-3.46
2023-03-29T04:08:55.033Z,-3.64
2023-03-29T04:12:09.501Z,-3.48
2023-03-29T04:15:14.293Z,-3.49
2023-03-29T04:18:24.333Z,-3.44
2023-03-29T04:21:29.972Z,-3.42
2023-03-29T04:24:31.911Z,-3.42
2023-03-29T04:28:07.441Z,-3.40
2023-03-29T04:31:29.725Z,-3.43
2023-03-29T04:34:46.807Z,-3.46
2023-03-29T04:37:51.292Z,-3.46
2023-03-29T04:40:56.167Z,-3.63
2023-03-29T04:44:03.940Z,-3.63
2023-03-29T04:47:07.120Z,-3.38
2023-03-29T04:50:41.737Z,-3.31
2023-03-29T04:53:43.789Z,-3.30
2023-03-29T04:56:46.262Z,-3.43
2023-03-29T05:00:15.460Z,-3.31
2023-03-29T05:03:45.615Z,-3.22
2023-03-29T05:06:54.643Z,-3.13
2023-03-29T05:09:57.711Z,-3.12
2023-03-29T05:12:59.918Z,-2.83
2023-03-29T05:16:04.622Z,-2.83
2023-03-29T05:19:07.003Z,-2.69
2023-03-29T05:22:12.050Z,-2.55
2023-03-29T05:25:14.267Z,-2.88
2023-03-29T05:28:18.480Z,-2.38
2023-03-29T05:31:20.707Z,-2.34
2023-03-29T05:34:27.666Z,-2.41
2023-03-29T05:37:34.545Z,-2.20
2023-03-29T05:40:38.122Z,-2.15
2023-03-29T05:44:08.767Z,-2.22
2023-03-29T05:47:12.182Z,-2.13
2023-03-29T05:50:14.734Z,-2.10
2023-03-29T05:53:17.981Z,-2.06
2023-03-29T05:56:20.154Z,-1.98
2023-03-29T05:59:23.852Z,-1.90
2023-03-29T06:02:26.585Z,-1.75
2023-03-29T06:05:29.052Z,-1.61
2023-03-29T06:08:35.344Z,-1.46
2023-03-29T06:12:01.963Z,-1.28
2023-03-29T06:15:13.628Z,-1.18
2023-03-29T06:18:20.768Z,-1.00
2023-03-29T06:21:23.578Z,-0.88
2023-03-29T06:24:26.238Z,-0.71
2023-03-29T06:27:36.430Z,-0.58
2023-03-29T06:30:39.250Z,-0.36
2023-03-29T06:33:43.405Z,-0.41
2023-03-29T06:37:03.875Z,-0.06
2023-03-29T06:40:07.183Z,0.04
2023-03-29T06:43:16.057Z,0.11
2023-03-29T06:46:28.152Z,0.27
2023-03-29T06:49:32.284Z,0.52
2023-03-29T06:52:46.412Z,0.80
2023-03-29T06:55:49.773Z,1.10
2023-03-29T06:59:07.489Z,1.41
2023-03-29T07:02:17.689Z,1.65
2023-03-29T07:05:24.173Z,1.88
2023-03-29T07:08:31.452Z,1.96
2023-03-29T07:11:37.070Z,2.33
2023-03-29T07:14:56.834Z,2.62
2023-03-29T07:18:04.934Z,2.88
2023-03-29T07:21:09.068Z,3.11
2023-03-29T07:24:11.127Z,3.27
2023-03-29T07:27:13.528Z,3.43
2023-03-29T07:30:18.147Z,3.63
2023-03-29T07:33:20.347Z,3.87
2023-03-29T07:36:34.488Z,4.03
2023-03-29T07:39:37.396Z,4.14
2023-03-29T07:42:59.041Z,4.24
2023-03-29T07:46:05.484Z,4.27
2023-03-29T07:49:10.127Z,4.29
2023-03-29T07:52:12.396Z,4.36
2023-03-29T07:55:15.386Z,4.45
2023-03-29T07:58:30.612Z,4.62
2023-03-29T08:01:33.219Z,4.79
2023-03-29T08:04:38.018Z,4.83
2023-03-29T08:08:02.994Z,4.87
2023-03-29T08:11:34.440Z,4.99
2023-03-29T08:14:39.146Z,5.02
2023-03-29T08:18:01.666Z,5.22
2023-03-29T08:21:05.515Z,5.40
2023-03-29T08:24:08.194Z,5.53
2023-03-29T08:27:20.236Z,5.53
2023-03-29T08:30:22.428Z,5.46
2023-03-29T08:33:25.777Z,5.58
2023-03-29T08:36:43.640Z,5.72
2023-03-29T08:40:02.597Z,5.84
2023-03-29T08:43:14.746Z,5.83
2023-03-29T08:47:29.004Z,5.90
2023-03-29T08:50:41.041Z,5.80
2023-03-29T08:53:50.337Z,6.20
2023-03-29T08:57:06.795Z,6.15
2023-03-29T09:00:22.812Z,6.15
2023-03-29T09:03:30.498Z,6.27
2023-03-29T09:06:39.371Z,6.40
2023-03-29T09:09:51.186Z,6.49
2023-03-29T09:13:26.799Z,6.50
2023-03-29T09:16:43.537Z,6.52
2023-03-29T09:20:23.062Z,6.44
2023-03-29T09:23:37.199Z,6.49
2023-03-29T09:27:16.914Z,6.47
2023-03-29T09:30:35.763Z,6.45
2023-03-29T09:33:46.801Z,6.39
2023-03-29T09:36:59.011Z,6.41
2023-03-29T09:40:05.371Z,6.41
2023-03-29T09:43:32.194Z,6.44
2023-03-29T09:46:41.938Z,6.55
2023-03-29T09:49:48.848Z,6.52
2023-03-29T09:52:51.150Z,6.58
2023-03-29T09:55:57.042Z,6.64
2023-03-29T09:59:13.585Z,6.66
2023-03-29T10:02:16.039Z,6.64
2023-03-29T10:05:18.664Z,6.59
2023-03-29T10:08:36.016Z,6.34
2023-03-29T10:11:39.665Z,6.10
2023-03-29T10:14:46.126Z,6.04
2023-03-29T10:17:49.068Z,5.90
2023-03-29T10:20:51.058Z,6.22
2023-03-29T10:23:59.680Z,6.22
2023-03-29T10:27:07.052Z,6.18
2023-03-29T10:30:13.293Z,6.26
2023-03-29T10:33:22.181Z,6.24
2023-03-29T10:36:27.283Z,6.32
2023-03-29T10:39:34.084Z,6.48
2023-03-29T10:42:36.151Z,6.62
2023-03-29T10:45:40.095Z,6.80
2023-03-29T10:48:47.762Z,6.78
2023-03-29T10:51:50.844Z,6.69
2023-03-29T10:54:55.621Z,6.68
2023-03-29T10:58:06.731Z,6.64
2023-03-29T11:01:17.696Z,6.38
2023-03-29T11:04:47.876Z,6.39
2023-03-29T11:08:31.738Z,6.25
2023-03-29T11:12:15.959Z,6.38
2023-03-29T11:15:27.375Z,6.14
2023-03-29T11:19:14.955Z,5.90
2023-03-29T11:23:13.997Z,6.00
2023-03-29T11:26:42.881Z,5.84
2023-03-29T11:30:06.861Z,5.87
2023-03-29T11:33:17.968Z,6.04
2023-03-29T11:36:57.545Z,6.12
2023-03-29T11:40:11.263Z,5.98
2023-03-29T11:43:23.153Z,5.66
2023-03-29T11:46:42.802Z,5.47
2023-03-29T11:49:52.652Z,5.24
2023-03-29T11:53:02.226Z,5.34
2023-03-29T11:56:15.738Z,5.34
2023-03-29T11:59:41.797Z,5.26
2023-03-29T12:03:03.207Z,5.20
2023-03-29T12:06:17.005Z,5.29
2023-03-29T12:09:33.643Z,5.38
2023-03-29T12:12:53.170Z,5.65
2023-03-29T12:16:07.013Z,5.63
2023-03-29T12:19:24.182Z,5.60
2023-03-29T12:22:26.546Z,5.61
2023-03-29T12:25:41.352Z,5.46
2023-03-29T12:28:49.320Z,5.38
2023-03-29T12:32:19.431Z,5.26
2023-03-29T12:36:00.049Z,5.09
2023-03-29T12:39:21.722Z,4.99
2023-03-29T12:43:07.155Z,4.93
2023-03-29T12:46:33.811Z,4.89
2023-03-29T12:49:39.195Z,4.88
2023-03-29T12:52:43.102Z,4.96
2023-03-29T12:55:45.037Z,4.97
2023-03-29T12:59:05.838Z,4.94
2023-03-29T13:02:17.885Z,4.96
2023-03-29T13:05:59.080Z,5.00
2023-03-29T13:09:24.258Z,4.99
2023-03-29T13:12:29.632Z,4.97
2023-03-29T13:15:34.939Z,4.71
2023-03-29T13:19:06.877Z,4.90
2023-03-29T13:22:27.677Z,4.95
2023-03-29T13:25:46.262Z,4.91
2023-03-29T13:29:09.768Z,4.92
2023-03-29T13:32:41.211Z,4.92
2023-03-29T13:35:49.317Z,4.98
2023-03-29T13:38:54.662Z,5.08
2023-03-29T13:42:08.395Z,5.14
2023-03-29T13:45:26.418Z,5.29
2023-03-29T13:48:46.289Z,5.35
2023-03-29T13:52:04.752Z,5.53
2023-03-29T13:55:25.423Z,5.59
2023-03-29T13:58:38.276Z,5.65
2023-03-29T14:01:46.983Z,5.70
2023-03-29T14:04:52.413Z,5.58
2023-03-29T14:07:55.724Z,5.93
2023-03-29T14:11:02.483Z,5.95
2023-03-29T14:14:08.406Z,6.07
2023-03-29T14:17:22.920Z,6.02
2023-03-29T14:20:25.746Z,6.00
2023-03-29T14:23:31.925Z,5.99
2023-03-29T14:26:36.070Z,5.89
2023-03-29T14:29:38.604Z,5.77
2023-03-29T14:32:40.818Z,5.62
2023-03-29T14:35:42.961Z,5.63
2023-03-29T14:38:59.725Z,5.55
2023-03-29T14:42:02.349Z,5.81
2023-03-29T14:45:06.556Z,5.84
2023-03-29T14:48:12.481Z,5.88
2023-03-29T14:51:14.939Z,5.94
2023-03-29T14:54:22.317Z,5.91
2023-03-29T14:57:27.594Z,5.90
2023-03-29T15:00:44.974Z,5.88
2023-03-29T15:03:57.640Z,5.92
2023-03-29T15:07:00.134Z,5.94
2023-03-29T15:10:05.325Z,5.95
2023-03-29T15:13:08.821Z,5.97
2023-03-29T15:16:17.030Z,5.93
2023-03-29T15:19:22.117Z,5.95
2023-03-29T15:22:24.152Z,5.69
2023-03-29T15:25:35.294Z,5.73
2023-03-29T15:28:57.673Z,5.77
2023-03-29T15:31:59.883Z,5.74
2023-03-29T15:35:05.230Z,5.70
2023-03-29T15:38:07.327Z,5.70
2023-03-29T15:41:10.781Z,5.62
2023-03-29T15:44:17.476Z,5.63
2023-03-29T15:47:19.653Z,5.63
2023-03-29T15:50:22.151Z,5.61
2023-03-29T15:53:24.578Z,5.59
2023-03-29T15:56:27.222Z,5.57
2023-03-29T15:59:31.403Z,5.53
2023-03-29T16:02:33.738Z,5.51
2023-03-29T16:05:36.146Z,5.23
2023-03-29T16:08:38.183Z,5.40
2023-03-29T16:11:42.072Z,5.41
2023-03-29T16:14:44.125Z,5.40
2023-03-29T16:17:46.429Z,5.27
2023-03-29T16:20:48.474Z,5.35
2023-03-29T16:23:51.542Z,5.15
2023-03-29T16:26:55.925Z,5.30
2023-03-29T16:29:59.173Z,5.20
2023-03-29T16:33:06.321Z,5.33
2023-03-29T16:36:08.949Z,5.31
2023-03-29T16:39:13.624Z,5.28
2023-03-29T16:42:15.627Z,5.25
2023-03-29T16:45:18.864Z,5.20
2023-03-29T16:48:20.920Z,5.14
2023-03-29T16:51:23.146Z,5.09
2023-03-29T16:54:25.959Z,5.06
2023-03-29T16:57:28.529Z,5.00
2023-03-29T17:00:30.857Z,4.96
2023-03-29T17:06:35.418Z,4.91
2023-03-29T17:09:37.613Z,4.90
2023-03-29T17:12:40.128Z,4.90
2023-03-29T17:15:42.592Z,4.87
2023-03-29T17:18:44.915Z,4.84
2023-03-29T17:21:47.370Z,4.81
2023-03-29T17:24:50.144Z,4.54
2023-03-29T17:27:54.587Z,4.79
2023-03-29T17:30:57.537Z,4.76
2023-03-29T17:34:01.017Z,4.73
2023-03-29T17:37:04.344Z,4.72
2023-03-29T17:40:14.263Z,4.71
2023-03-29T17:43:16.862Z,4.68
2023-03-29T17:46:23.294Z,4.63
2023-03-29T17:49:26.162Z,4.62
2023-03-29T17:52:29.643Z,4.60
2023-03-29T17:55:31.991Z,4.51
2023-03-29T17:58:34.520Z,4.54
2023-03-29T18:01:39.257Z,4.29
2023-03-29T18:04:42.245Z,4.46
2023-03-29T18:07:46.160Z,4.41
2023-03-29T18:10:48.880Z,4.37
2023-03-29T18:13:55.192Z,4.37
2023-03-29T18:16:57.678Z,4.38
2023-03-29T18:20:00.346Z,4.37
2023-03-29T18:23:03.147Z,4.35
2023-03-29T18:26:07.080Z,4.22
2023-03-29T18:29:10.022Z,4.36
2023-03-29T18:32:13.265Z,4.33
2023-03-29T18:35:16.327Z,4.34
2023-03-29T18:38:21.690Z,4.35
2023-03-29T18:41:24.636Z,4.33
2023-03-29T18:44:28.035Z,4.28
2023-03-29T18:47:30.955Z,4.30
2023-03-29T18:50:35.508Z,4.27
2023-03-29T18:53:42.233Z,4.27
2023-03-29T18:56:45.138Z,4.28
2023-03-29T18:59:49.044Z,4.21
2023-03-29T19:02:52.202Z,4.19
2023-03-29T19:05:56.069Z,4.18
2023-03-29T19:09:02.545Z,4.16
2023-03-29T19:12:05.771Z,4.17
2023-03-29T19:15:10.292Z,4.17
2023-03-29T19:18:14.744Z,4.17
2023-03-29T19:21:20.778Z,4.14
2023-03-29T19:24:25.080Z,4.14
2023-03-29T19:27:28.257Z,4.15
2023-03-29T19:30:32.125Z,4.11
2023-03-29T19:33:37.012Z,4.11
2023-03-29T19:36:40.171Z,4.11
2023-03-29T19:39:42.826Z,4.09
2023-03-29T19:42:48.183Z,4.11
2023-03-29T19:45:51.333Z,3.92
2023-03-29T19:48:56.387Z,4.11
2023-03-29T19:52:00.522Z,4.12
2023-03-29T19:55:03.269Z,4.12
2023-03-29T19:58:07.873Z,4.13
2023-03-29T20:01:10.186Z,4.00
2023-03-29T20:04:12.654Z,4.12
2023-03-29T20:07:15.274Z,4.11
2023-03-29T20:10:17.980Z,3.81
2023-03-29T20:13:31.323Z,4.10
2023-03-29T20:16:41.999Z,4.10
2023-03-29T20:19:44.257Z,4.10
2023-03-29T20:22:46.530Z,4.10
2023-03-29T20:25:48.852Z,4.09
2023-03-29T20:28:51.198Z,4.08
2023-03-29T20:31:53.750Z,3.86
2023-03-29T20:34:56.140Z,4.01
2023-03-29T20:37:58.188Z,4.01
2023-03-29T20:41:00.339Z,4.01
2023-03-29T20:44:03.108Z,3.93
2023-03-29T20:47:08.732Z,3.92
2023-03-29T20:50:11.079Z,3.88
2023-03-29T20:53:13.905Z,3.81
2023-03-29T20:56:16.100Z,3.83
2023-03-29T20:59:18.268Z,3.80
2023-03-29T21:02:23.038Z,3.71
2023-03-29T21:05:27.197Z,3.82
2023-03-29T21:08:29.915Z,3.83
2023-03-29T21:11:32.218Z,3.84
2023-03-29T21:14:34.207Z,3.84
2023-03-29T21:17:37.368Z,3.84
2023-03-29T21:20:39.468Z,3.85
2023-03-29T21:23:41.474Z,3.88
2023-03-29T21:26:43.545Z,3.85
2023-03-29T21:29:45.830Z,3.72
2023-03-29T21:32:47.939Z,3.82
2023-03-29T21:35:50.770Z,3.77
2023-03-29T21:38:53.014Z,3.71
2023-03-29T21:41:56.270Z,3.67
2023-03-29T21:44:58.312Z,3.58
2023-03-29T21:48:00.560Z,3.47
2023-03-29T21:51:03.172Z,3.37
2023-03-29T21:54:05.487Z,3.24
2023-03-29T21:57:07.524Z,3.13
2023-03-29T22:00:11.487Z,3.00
2023-03-29T22:03:14.371Z,2.85
2023-03-29T22:06:16.476Z,2.75
2023-03-29T22:09:20.636Z,2.57
2023-03-29T22:12:22.946Z,2.51
2023-03-29T22:15:25.059Z,2.38
2023-03-29T22:18:30.300Z,2.29
2023-03-29T22:21:32.577Z,2.27
2023-03-29T22:24:34.626Z,2.27
2023-03-29T22:27:36.931Z,2.24
2023-03-29T22:30:39.149Z,2.35
2023-03-29T22:33:42.196Z,2.32
2023-03-29T22:36:44.302Z,2.37
2023-03-29T22:39:46.610Z,2.45
2023-03-29T22:42:48.619Z,2.45
2023-03-29T22:45:50.750Z,2.18
2023-03-29T22:48:53.277Z,2.48
2023-03-29T22:51:55.478Z,2.49
2023-03-29T22:54:57.510Z,2.46
2023-03-29T22:57:59.531Z,2.36
2023-03-29T23:01:02.063Z,2.22
2023-03-29T23:04:04.714Z,2.15
2023-03-29T23:07:06.865Z,2.10
2023-03-29T23:10:09.469Z,2.06
2023-03-29T23:13:13.732Z,1.96
2023-03-29T23:16:16.846Z,1.92
2023-03-29T23:19:18.888Z,1.90
2023-03-29T23:22:21.311Z,1.83
2023-03-29T23:25:24.834Z,1.76
2023-03-29T23:28:30.670Z,1.80
2023-03-29T23:31:33.981Z,1.79
2023-03-29T23:34:36.232Z,1.91
2023-03-29T23:37:38.330Z,1.93
2023-03-29T23:40:40.337Z,1.94
2023-03-29T23:43:44.576Z,1.96
2023-03-29T23:46:46.633Z,1.97
2023-03-29T23:49:48.709Z,2.02
2023-03-29T23:52:51.778Z,2.06
2023-03-29T23:56:00.612Z,2.06
2023-03-29T23:59:04.639Z,2.09
